createdAt,value
2023-02-11T00:02:01.830Z,100953.32
2023-02-11T00:04:29.657Z,100955.94
2023-02-11T00:06:57.421Z,100956.55
2023-02-11T00:09:25.186Z,100949.09
2023-02-11T00:11:53.164Z,100948.39
2023-02-11T00:14:20.918Z,100951.29
2023-02-11T00:16:48.673Z,100952.07
2023-02-11T00:19:16.553Z,100957.40
2023-02-11T00:21:44.421Z,100958.95
2023-02-11T00:24:12.076Z,100954.42
2023-02-11T00:26:39.840Z,100949.41
2023-02-11T00:29:07.603Z,100943.83
2023-02-11T00:31:35.416Z,100942.23
2023-02-11T00:34:03.338Z,100930.74
2023-02-11T00:36:31.206Z,100925.27
2023-02-11T00:38:59.072Z,100912.45
2023-02-11T00:41:26.733Z,100908.33
2023-02-11T00:43:54.490Z,100907.14
2023-02-11T00:46:22.322Z,100906.78
2023-02-11T00:48:51.993Z,100908.91
2023-02-11T00:51:19.827Z,100913.23
2023-02-11T00:53:47.489Z,100915.19
2023-02-11T00:56:15.154Z,100919.13
2023-02-11T00:58:42.914Z,100918.75
2023-02-11T01:01:10.726Z,100915.84
2023-02-11T01:03:38.446Z,100918.33
2023-02-11T01:06:06.207Z,100917.89
2023-02-11T01:08:33.974Z,100912.13
2023-02-11T01:11:01.671Z,100911.05
2023-02-11T01:13:29.403Z,100908.79
2023-02-11T01:15:57.153Z,100906.09
2023-02-11T01:18:24.929Z,100904.52
2023-02-11T01:20:52.689Z,100900.16
2023-02-11T01:23:20.376Z,100898.15
2023-02-11T01:25:48.165Z,100890.59
2023-02-11T01:28:16.214Z,100884.21
2023-02-11T01:30:43.996Z,100880.48
2023-02-11T01:33:11.830Z,100873.45
2023-02-11T01:35:39.590Z,100868.78
2023-02-11T01:38:07.348Z,100870.21
2023-02-11T01:40:35.116Z,100869.91
2023-02-11T01:43:02.772Z,100873.88
2023-02-11T01:45:30.543Z,100869.58
2023-02-11T01:47:58.198Z,100858.65
2023-02-11T01:50:25.983Z,100851.79
2023-02-11T01:52:53.730Z,100852.44
2023-02-11T01:55:40.535Z,100847.52
2023-02-11T01:58:08.302Z,100842.83
2023-02-11T02:00:36.682Z,100839.48
2023-02-11T02:03:04.440Z,100837.85
2023-02-11T02:05:32.218Z,100839.52
2023-02-11T02:07:59.981Z,100837.20
2023-02-11T02:10:27.732Z,100828.78
2023-02-11T02:12:55.497Z,100812.65
2023-02-11T02:15:23.687Z,100811.61
2023-02-11T02:17:51.431Z,100803.68
2023-02-11T02:20:19.603Z,100802.27
2023-02-11T02:22:47.267Z,100801.73
2023-02-11T02:25:14.928Z,100803.09
2023-02-11T02:27:42.689Z,100805.67
2023-02-11T02:30:10.461Z,100798.48
2023-02-11T02:32:38.109Z,100795.73
2023-02-11T02:35:05.880Z,100799.64
2023-02-11T02:37:33.846Z,100798.64
2023-02-11T02:40:01.561Z,100802.80
2023-02-11T02:42:29.375Z,100807.81
2023-02-11T02:44:57.242Z,100811.77
2023-02-11T02:47:24.902Z,100805.04
2023-02-11T02:49:52.570Z,100802.66
2023-02-11T02:52:20.227Z,100802.72
2023-02-11T02:54:47.915Z,100799.84
2023-02-11T02:57:15.655Z,100796.88
2023-02-11T02:59:43.419Z,100791.97
2023-02-11T03:02:11.184Z,100783.02
2023-02-11T03:04:38.946Z,100775.94
2023-02-11T03:07:06.607Z,100772.23
2023-02-11T03:09:34.370Z,100769.85
2023-02-11T03:12:02.135Z,100762.14
2023-02-11T03:14:30.308Z,100777.41
2023-02-11T03:16:58.072Z,100764.70
2023-02-11T03:19:25.733Z,100767.47
2023-02-11T03:21:53.501Z,100760.56
2023-02-11T03:24:21.159Z,100752.40
2023-02-11T03:26:48.821Z,100741.39
2023-02-11T03:29:16.605Z,100743.27
2023-02-11T03:31:44.398Z,100737.76
2023-02-11T03:34:12.938Z,100723.64
2023-02-11T03:36:41.412Z,100708.92
2023-02-11T03:39:09.078Z,100699.50
2023-02-11T03:41:36.843Z,100697.67
2023-02-11T03:44:04.600Z,100697.16
2023-02-11T03:46:32.374Z,100696.08
2023-02-11T03:49:00.131Z,100696.77
2023-02-11T03:51:27.795Z,100700.55
2023-02-11T03:53:55.559Z,100696.52
2023-02-11T03:56:23.221Z,100688.58
2023-02-11T03:58:50.982Z,100676.77
2023-02-11T04:01:18.732Z,100666.87
2023-02-11T04:03:46.612Z,100660.81
2023-02-11T04:06:14.379Z,100658.71
2023-02-11T04:08:42.138Z,100652.97
2023-02-11T04:11:09.800Z,100650.63
2023-02-11T04:13:37.566Z,100638.48
2023-02-11T04:16:05.342Z,100626.58
2023-02-11T04:18:33.098Z,100622.91
2023-02-11T04:21:00.856Z,100616.58
2023-02-11T04:23:28.619Z,100609.89
2023-02-11T04:25:56.382Z,100603.33
2023-02-11T04:28:24.239Z,100604.58
2023-02-11T04:30:52.133Z,100600.71
2023-02-11T04:33:19.982Z,100603.52
2023-02-11T04:35:47.847Z,100593.77
2023-02-11T04:38:15.715Z,100596.90
2023-02-11T04:40:43.478Z,100592.08
2023-02-11T04:43:11.243Z,100598.17
2023-02-11T04:45:38.948Z,100599.68
2023-02-11T04:48:06.771Z,100608.99
2023-02-11T04:50:34.434Z,100611.59
2023-02-11T04:53:02.204Z,100616.81
2023-02-11T04:55:29.969Z,100618.88
2023-02-11T04:57:57.729Z,100626.40
2023-02-11T05:00:25.489Z,100627.27
2023-02-11T05:02:53.352Z,100622.88
2023-02-11T05:05:21.231Z,100622.41
2023-02-11T05:07:48.987Z,100619.96
2023-02-11T05:10:16.752Z,100614.59
2023-02-11T05:12:44.512Z,100617.96
2023-02-11T05:15:12.174Z,100620.11
2023-02-11T05:17:39.935Z,100618.48
2023-02-11T05:20:07.706Z,100618.10
2023-02-11T05:22:35.468Z,100615.60
2023-02-11T05:25:03.227Z,100615.02
2023-02-11T05:27:30.999Z,100611.23
2023-02-11T05:29:58.762Z,100611.80
2023-02-11T05:32:26.519Z,100616.67
2023-02-11T05:34:54.190Z,100626.09
2023-02-11T05:37:21.966Z,100628.35
2023-02-11T05:39:49.708Z,100620.48
2023-02-11T05:42:17.471Z,100614.83
2023-02-11T05:44:45.241Z,100610.20
2023-02-11T05:47:13.000Z,100608.00
2023-02-11T05:49:40.767Z,100604.98
2023-02-11T05:52:08.528Z,100592.95
2023-02-11T05:54:36.233Z,100566.65
2023-02-11T05:57:03.953Z,100531.04
2023-02-11T05:59:31.720Z,100501.71
2023-02-11T06:01:59.483Z,100468.04
2023-02-11T06:04:27.245Z,100433.39
2023-02-11T06:06:54.908Z,100411.20
2023-02-11T06:09:22.672Z,100428.72
2023-02-11T06:11:50.434Z,100451.55
2023-02-11T06:14:18.197Z,100482.45
2023-02-11T06:16:45.960Z,100491.77
2023-02-11T06:19:13.624Z,100495.60
2023-02-11T06:21:44.203Z,100502.95
2023-02-11T06:24:12.116Z,100512.81
2023-02-11T06:26:39.889Z,100517.73
2023-02-11T06:29:07.659Z,100522.41
2023-02-11T06:31:35.453Z,100527.10
2023-02-11T06:34:03.284Z,100522.91
2023-02-11T06:36:31.253Z,100519.68
2023-02-11T06:38:59.015Z,100517.30
2023-02-11T06:41:26.774Z,100513.59
2023-02-11T06:43:54.540Z,100508.34
2023-02-11T06:46:22.358Z,100493.73
2023-02-11T06:48:50.068Z,100485.20
2023-02-11T06:51:17.845Z,100488.70
2023-02-11T06:53:45.600Z,100486.63
2023-02-11T06:56:13.360Z,100491.36
2023-02-11T06:58:41.124Z,100493.27
2023-02-11T07:01:08.888Z,100490.02
2023-02-11T07:03:36.758Z,100482.94
2023-02-11T07:06:05.759Z,100487.91
2023-02-11T07:08:33.509Z,100484.71
2023-02-11T07:11:01.278Z,100489.95
2023-02-11T07:13:29.038Z,100486.92
2023-02-11T07:15:56.731Z,100477.78
2023-02-11T07:18:24.462Z,100466.48
2023-02-11T07:20:52.124Z,100464.13
2023-02-11T07:23:19.890Z,100463.92
2023-02-11T07:25:47.649Z,100460.05
2023-02-11T07:28:15.416Z,100457.39
2023-02-11T07:30:43.215Z,100452.54
2023-02-11T07:33:10.943Z,100453.41
2023-02-11T07:35:40.441Z,100456.95
2023-02-11T07:38:09.440Z,100455.88
2023-02-11T07:40:37.203Z,100450.77
2023-02-11T07:43:04.967Z,100447.06
2023-02-11T07:45:32.730Z,100445.77
2023-02-11T07:48:00.501Z,100443.02
2023-02-11T07:50:28.254Z,100434.66
2023-02-11T07:52:55.920Z,100436.05
2023-02-11T07:55:23.690Z,100440.21
2023-02-11T07:57:51.462Z,100440.07
2023-02-11T08:00:21.093Z,100428.33
2023-02-11T08:02:49.130Z,100438.20
2023-02-11T08:05:16.992Z,100434.32
2023-02-11T08:07:44.665Z,100431.02
2023-02-11T08:10:12.424Z,100428.38
2023-02-11T08:12:40.077Z,100430.20
2023-02-11T08:15:07.841Z,100430.77
2023-02-11T08:17:35.608Z,100430.11
2023-02-11T08:20:03.263Z,100425.02
2023-02-11T08:22:30.925Z,100426.13
2023-02-11T08:24:58.896Z,100425.73
2023-02-11T08:27:29.831Z,100429.00
2023-02-11T08:29:59.643Z,100426.29
2023-02-11T08:32:27.509Z,100429.89
2023-02-11T08:34:55.172Z,100433.64
2023-02-11T08:37:23.035Z,100428.90
2023-02-11T08:39:51.214Z,100429.26
2023-02-11T08:42:18.980Z,100427.84
2023-02-11T08:44:46.742Z,100430.71
2023-02-11T08:47:14.400Z,100436.27
2023-02-11T08:49:42.886Z,100436.75
2023-02-11T08:52:10.645Z,100438.17
2023-02-11T08:54:38.308Z,100438.58
2023-02-11T08:57:06.069Z,100431.88
2023-02-11T08:59:33.837Z,100425.82
2023-02-11T09:02:01.625Z,100425.25
2023-02-11T09:04:29.378Z,100418.61
2023-02-11T09:06:57.022Z,100410.76
2023-02-11T09:09:24.786Z,100406.29
2023-02-11T09:11:57.384Z,100400.79
2023-02-11T09:14:25.126Z,100402.52
2023-02-11T09:16:53.522Z,100411.96
2023-02-11T09:19:21.376Z,100411.77
2023-02-11T09:21:49.377Z,100410.60
2023-02-11T09:24:17.110Z,100409.27
2023-02-11T09:26:44.872Z,100408.59
2023-02-11T09:29:12.628Z,100413.98
2023-02-11T09:31:40.490Z,100407.23
2023-02-11T09:34:08.672Z,100401.02
2023-02-11T09:36:37.581Z,100394.77
2023-02-11T09:39:10.864Z,100394.60
2023-02-11T09:41:39.136Z,100405.23
2023-02-11T09:44:06.897Z,100406.60
2023-02-11T09:46:34.594Z,100403.05
2023-02-11T09:49:02.425Z,100404.48
2023-02-11T09:51:30.087Z,100408.88
2023-02-11T09:54:00.094Z,100401.61
2023-02-11T09:56:28.484Z,100403.32
2023-02-11T09:58:56.252Z,100399.11
2023-02-11T10:01:23.951Z,100396.62
2023-02-11T10:03:51.677Z,100386.56
2023-02-11T10:06:20.267Z,100377.52
2023-02-11T10:08:48.033Z,100370.07
2023-02-11T10:11:29.686Z,100374.84
2023-02-11T10:13:58.910Z,100367.05
2023-02-11T10:16:26.573Z,100366.66
2023-02-11T10:18:54.340Z,100357.40
2023-02-11T10:21:22.017Z,100353.29
2023-02-11T10:23:49.760Z,100342.67
2023-02-11T10:26:17.528Z,100336.73
2023-02-11T10:28:45.249Z,100325.45
2023-02-11T10:31:15.982Z,100318.66
2023-02-11T10:33:43.889Z,100309.71
2023-02-11T10:36:11.550Z,100301.27
2023-02-11T10:38:39.518Z,100292.48
2023-02-11T10:41:07.389Z,100281.45
2023-02-11T10:43:35.149Z,100277.64
2023-02-11T10:46:02.963Z,100273.85
2023-02-11T10:48:30.782Z,100267.63
2023-02-11T10:50:58.479Z,100267.60
2023-02-11T10:53:26.511Z,100259.83
2023-02-11T10:55:54.183Z,100256.91
2023-02-11T10:58:21.938Z,100250.05
2023-02-11T11:00:49.925Z,100235.98
2023-02-11T11:03:17.876Z,100221.74
2023-02-11T11:05:45.537Z,100215.38
2023-02-11T11:08:13.521Z,100219.80
2023-02-11T11:10:44.146Z,100219.38
2023-02-11T11:13:11.900Z,100217.75
2023-02-11T11:15:39.586Z,100210.57
2023-02-11T11:18:20.510Z,100216.11
2023-02-11T11:20:49.848Z,100208.67
2023-02-11T11:23:17.803Z,100198.13
2023-02-11T11:25:46.280Z,100198.11
2023-02-11T11:28:14.007Z,100196.52
2023-02-11T11:30:41.849Z,100194.63
2023-02-11T11:33:09.575Z,100194.54
2023-02-11T11:35:37.236Z,100175.33
2023-02-11T11:38:05.246Z,100174.52
2023-02-11T11:40:32.972Z,100176.09
2023-02-11T11:43:00.736Z,100175.30
2023-02-11T11:45:28.497Z,100184.95
2023-02-11T11:47:58.518Z,100189.92
2023-02-11T11:50:26.684Z,100179.60
2023-02-11T11:52:54.341Z,100177.08
2023-02-11T11:55:22.111Z,100176.15
2023-02-11T11:57:49.870Z,100172.16
2023-02-11T12:00:17.744Z,100173.04
2023-02-11T12:02:45.529Z,100172.23
2023-02-11T12:05:13.374Z,100177.03
2023-02-11T12:07:41.338Z,100164.72
2023-02-11T12:10:09.098Z,100162.45
2023-02-11T12:12:36.864Z,100162.69
2023-02-11T12:15:04.727Z,100165.54
2023-02-11T12:17:32.389Z,100159.38
2023-02-11T12:20:00.150Z,100155.71
2023-02-11T12:22:27.918Z,100154.43
2023-02-11T12:24:55.580Z,100163.66
2023-02-11T12:27:23.343Z,100165.48
2023-02-11T12:29:51.115Z,100149.52
2023-02-11T12:32:18.807Z,100147.38
2023-02-11T12:34:46.536Z,100139.89
2023-02-11T12:37:14.196Z,100145.35
2023-02-11T12:39:41.959Z,100144.77
2023-02-11T12:42:28.583Z,100150.27
2023-02-11T12:44:56.329Z,100130.73
2023-02-11T12:47:24.196Z,100125.16
2023-02-11T12:49:51.860Z,100121.16
2023-02-11T12:52:19.519Z,100128.17
2023-02-11T12:54:47.306Z,100127.95
2023-02-11T12:57:15.048Z,100121.91
2023-02-11T12:59:42.810Z,100117.58
2023-02-11T13:02:10.502Z,100104.08
2023-02-11T13:04:38.134Z,100088.68
2023-02-11T13:07:06.615Z,100077.79
2023-02-11T13:09:34.278Z,100081.56
2023-02-11T13:12:21.918Z,100077.02
2023-02-11T13:14:49.572Z,100071.30
2023-02-11T13:17:17.556Z,100070.95
2023-02-11T13:19:45.304Z,100072.81
2023-02-11T13:22:13.067Z,100079.20
2023-02-11T13:24:40.838Z,100080.19
2023-02-11T13:27:08.496Z,100063.98
2023-02-11T13:29:36.266Z,100065.17
2023-02-11T13:32:04.075Z,100054.09
2023-02-11T13:34:31.728Z,100040.09
2023-02-11T13:36:59.447Z,100038.33
2023-02-11T13:39:27.106Z,100047.92
2023-02-11T13:41:54.872Z,100062.33
2023-02-11T13:44:22.956Z,100063.68
2023-02-11T13:46:50.919Z,100072.59
2023-02-11T13:49:18.575Z,100080.49
2023-02-11T13:51:46.344Z,100086.45
2023-02-11T13:54:14.609Z,100094.37
2023-02-11T13:56:46.469Z,100100.04
2023-02-11T13:59:14.231Z,100107.98
2023-02-11T14:01:42.741Z,100107.41
2023-02-11T14:04:29.524Z,100109.14
2023-02-11T14:07:15.820Z,100110.48
2023-02-11T14:09:43.587Z,100111.52
2023-02-11T14:12:11.350Z,100118.38
2023-02-11T14:14:39.012Z,100119.86
2023-02-11T14:17:06.720Z,100128.81
2023-02-11T14:19:34.542Z,100133.55
2023-02-11T14:22:02.509Z,100141.30
2023-02-11T14:24:31.199Z,100137.59
2023-02-11T14:26:58.857Z,100139.92
2023-02-11T14:29:26.520Z,100145.49
2023-02-11T14:31:54.407Z,100149.23
2023-02-11T14:34:22.252Z,100148.55
2023-02-11T14:36:50.016Z,100138.33
2023-02-11T14:39:17.679Z,100136.98
2023-02-11T14:41:45.645Z,100129.96
2023-02-11T14:44:13.410Z,100127.13
2023-02-11T14:46:41.102Z,100126.69
2023-02-11T14:49:09.346Z,100129.35
2023-02-11T14:51:37.112Z,100128.29
2023-02-11T14:54:04.879Z,100132.25
2023-02-11T14:56:34.789Z,100131.77
2023-02-11T14:59:03.064Z,100136.05
2023-02-11T15:01:32.586Z,100131.56
2023-02-11T15:04:02.808Z,100134.64
2023-02-11T15:06:30.554Z,100135.66
2023-02-11T15:09:01.023Z,100137.10
2023-02-11T15:11:28.679Z,100132.70
2023-02-11T15:13:56.612Z,100135.69
2023-02-11T15:16:24.397Z,100136.95
2023-02-11T15:18:52.246Z,100140.97
2023-02-11T15:21:19.904Z,100138.80
2023-02-11T15:23:47.668Z,100139.02
2023-02-11T15:26:15.534Z,100135.63
2023-02-11T15:28:43.198Z,100134.63
2023-02-11T15:31:10.919Z,100139.70
2023-02-11T15:33:38.703Z,100138.50
2023-02-11T15:36:06.692Z,100138.16
2023-02-11T15:38:34.457Z,100137.85
2023-02-11T15:41:02.319Z,100133.77
2023-02-11T15:43:30.086Z,100140.23
2023-02-11T15:45:57.781Z,100147.75
2023-02-11T15:48:27.158Z,100147.02
2023-02-11T15:50:55.118Z,100141.76
2023-02-11T15:53:23.395Z,100141.14
2023-02-11T15:55:51.159Z,100143.67
2023-02-11T15:58:18.922Z,100143.92
2023-02-11T16:00:46.691Z,100148.41
2023-02-11T16:03:14.449Z,100146.74
2023-02-11T16:05:42.216Z,100144.05
2023-02-11T16:08:09.885Z,100147.58
2023-02-11T16:10:37.638Z,100150.08
2023-02-11T16:13:05.427Z,100159.64
2023-02-11T16:15:33.169Z,100152.17
2023-02-11T16:18:00.930Z,100150.48
2023-02-11T16:20:28.697Z,100149.92
2023-02-11T16:22:56.459Z,100149.66
2023-02-11T16:25:24.227Z,100152.16
2023-02-11T16:27:51.987Z,100161.92
2023-02-11T16:30:19.646Z,100166.02
2023-02-11T16:32:47.412Z,100156.95
2023-02-11T16:35:15.175Z,100167.11
2023-02-11T16:37:42.846Z,100171.85
2023-02-11T16:40:12.031Z,100175.89
2023-02-11T16:42:40.002Z,100172.66
2023-02-11T16:45:07.904Z,100172.02
2023-02-11T16:47:35.734Z,100177.36
2023-02-11T16:50:04.736Z,100179.63
2023-02-11T16:52:32.496Z,100179.20
2023-02-11T16:55:00.254Z,100173.45
2023-02-11T16:57:30.138Z,100162.41
2023-02-11T16:59:59.574Z,100164.13
2023-02-11T17:02:27.336Z,100161.61
2023-02-11T17:04:55.225Z,100151.86
2023-02-11T17:07:23.067Z,100149.61
2023-02-11T17:09:51.982Z,100164.42
2023-02-11T17:12:19.721Z,100170.69
2023-02-11T17:14:47.484Z,100168.88
2023-02-11T17:17:15.144Z,100177.02
2023-02-11T17:19:42.779Z,100174.44
2023-02-11T17:22:10.467Z,100176.59
2023-02-11T17:24:38.234Z,100176.30
2023-02-11T17:27:05.891Z,100174.83
2023-02-11T17:29:33.552Z,100173.98
2023-02-11T17:32:01.390Z,100176.27
2023-02-11T17:34:29.593Z,100171.36
2023-02-11T17:36:58.902Z,100166.77
2023-02-11T17:39:26.661Z,100171.24
2023-02-11T17:41:54.422Z,100176.78
2023-02-11T17:44:22.188Z,100186.85
2023-02-11T17:46:49.947Z,100188.33
2023-02-11T17:49:17.818Z,100190.02
2023-02-11T17:51:45.584Z,100188.15
2023-02-11T17:54:13.354Z,100192.55
2023-02-11T17:56:41.108Z,100185.42
2023-02-11T17:59:08.804Z,100186.23
2023-02-11T18:01:36.535Z,100190.55
2023-02-11T18:04:04.714Z,100192.75
2023-02-11T18:06:34.011Z,100189.55
2023-02-11T18:09:04.540Z,100190.11
2023-02-11T18:11:32.301Z,100195.13
2023-02-11T18:13:59.958Z,100201.87
2023-02-11T18:16:29.623Z,100195.98
2023-02-11T18:18:57.454Z,100198.55
2023-02-11T18:21:25.219Z,100200.50
2023-02-11T18:23:52.961Z,100200.36
2023-02-11T18:26:20.633Z,100200.45
2023-02-11T18:28:48.606Z,100203.61
2023-02-11T18:31:16.455Z,100197.09
2023-02-11T18:33:44.431Z,100198.91
2023-02-11T18:36:12.090Z,100197.20
2023-02-11T18:38:39.755Z,100191.21
2023-02-11T18:41:07.625Z,100196.92
2023-02-11T18:43:35.402Z,100200.46
2023-02-11T18:46:03.214Z,100210.34
2023-02-11T18:48:31.023Z,100207.27
2023-02-11T18:50:58.779Z,100211.16
2023-02-11T18:53:26.453Z,100213.73
2023-02-11T18:55:54.554Z,100217.80
2023-02-11T18:58:22.798Z,100225.15
2023-02-11T19:00:50.585Z,100219.85
2023-02-11T19:03:18.522Z,100221.05
2023-02-11T19:05:46.284Z,100228.01
2023-02-11T19:08:14.049Z,100228.55
2023-02-11T19:10:42.015Z,100226.03
2023-02-11T19:13:09.799Z,100224.61
2023-02-11T19:15:37.645Z,100225.05
2023-02-11T19:18:05.307Z,100227.43
2023-02-11T19:20:33.688Z,100230.56
2023-02-11T19:23:01.457Z,100234.06
2023-02-11T19:25:29.417Z,100233.69
2023-02-11T19:27:57.246Z,100234.10
2023-02-11T19:30:25.051Z,100237.14
2023-02-11T19:32:54.347Z,100238.75
2023-02-11T19:35:24.475Z,100238.63
2023-02-11T19:37:52.273Z,100237.87
2023-02-11T19:40:21.427Z,100239.06
2023-02-11T19:42:49.089Z,100246.05
2023-02-11T19:45:16.751Z,100246.77
2023-02-11T19:47:44.619Z,100241.73
2023-02-11T19:50:12.278Z,100245.66
2023-02-11T19:52:40.781Z,100248.87
2023-02-11T19:55:08.522Z,100249.11
2023-02-11T19:57:36.184Z,100257.78
2023-02-11T20:00:03.961Z,100258.66
2023-02-11T20:02:31.952Z,100259.27
2023-02-11T20:04:59.679Z,100263.53
2023-02-11T20:07:27.444Z,100265.70
2023-02-11T20:09:55.209Z,100266.70
2023-02-11T20:12:22.854Z,100265.83
2023-02-11T20:14:50.531Z,100267.31
2023-02-11T20:17:18.296Z,100269.25
2023-02-11T20:19:46.068Z,100269.04
2023-02-11T20:22:13.925Z,100269.91
2023-02-11T20:24:41.692Z,100273.11
2023-02-11T20:27:11.707Z,100275.70
2023-02-11T20:29:39.467Z,100270.63
2023-02-11T20:32:07.403Z,100270.39
2023-02-11T20:34:35.306Z,100270.18
2023-02-11T20:37:04.296Z,100267.50
2023-02-11T20:39:32.055Z,100263.72
2023-02-11T20:41:59.821Z,100262.08
2023-02-11T20:44:27.584Z,100260.45
2023-02-11T20:46:55.869Z,100264.88
2023-02-11T20:49:23.966Z,100265.59
2023-02-11T20:51:53.953Z,100266.77
2023-02-11T20:54:22.125Z,100272.67
2023-02-11T20:56:51.360Z,100273.13
2023-02-11T20:59:19.496Z,100279.13
2023-02-11T21:01:47.322Z,100278.61
2023-02-11T21:04:15.438Z,100279.92
2023-02-11T21:06:43.096Z,100284.45
2023-02-11T21:09:10.872Z,100286.33
2023-02-11T21:11:38.623Z,100290.45
2023-02-11T21:14:06.384Z,100289.86
2023-02-11T21:16:34.149Z,100291.08
2023-02-11T21:19:03.038Z,100291.27
2023-02-11T21:21:30.804Z,100295.23
2023-02-11T21:23:58.980Z,100299.30
2023-02-11T21:26:26.743Z,100302.63
2023-02-11T21:28:55.429Z,100302.72
2023-02-11T21:31:23.504Z,100299.66
2023-02-11T21:33:51.367Z,100307.17
2023-02-11T21:36:19.131Z,100306.56
2023-02-11T21:38:46.901Z,100311.33
2023-02-11T21:41:14.564Z,100311.77
2023-02-11T21:43:42.222Z,100312.95
2023-02-11T21:46:10.094Z,100312.29
2023-02-11T21:48:37.848Z,100311.88
2023-02-11T21:51:05.818Z,100314.70
2023-02-11T21:53:33.483Z,100312.05
2023-02-11T21:56:01.143Z,100313.29
2023-02-11T21:58:28.814Z,100323.58
2023-02-11T22:00:56.608Z,100325.22
2023-02-11T22:03:24.438Z,100326.66
2023-02-11T22:05:52.292Z,100326.85
2023-02-11T22:08:20.364Z,100331.05
2023-02-11T22:10:48.134Z,100337.07
2023-02-11T22:13:15.901Z,100336.33
2023-02-11T22:15:43.664Z,100336.09
2023-02-11T22:18:11.335Z,100337.80
2023-02-11T22:20:38.965Z,100342.90
2023-02-11T22:23:06.655Z,100343.28
2023-02-11T22:25:34.311Z,100347.23
2023-02-11T22:28:01.984Z,100349.26
2023-02-11T22:30:29.730Z,100350.72
2023-02-11T22:32:57.393Z,100354.73
2023-02-11T22:35:25.038Z,100356.08
2023-02-11T22:37:52.713Z,100357.86
2023-02-11T22:40:20.481Z,100367.42
2023-02-11T22:42:48.141Z,100365.42
2023-02-11T22:45:15.803Z,100363.23
2023-02-11T22:47:43.560Z,100365.46
2023-02-11T22:50:11.231Z,100367.95
2023-02-11T22:52:38.898Z,100373.01
2023-02-11T22:55:07.263Z,100373.83
2023-02-11T22:57:34.921Z,100373.07
2023-02-11T23:00:02.694Z,100371.71
2023-02-11T23:02:30.396Z,100371.99
2023-02-11T23:04:59.544Z,100377.66
2023-02-11T23:07:27.310Z,100374.30
2023-02-11T23:09:55.073Z,100381.80
2023-02-11T23:12:22.841Z,100377.02
2023-02-11T23:14:50.502Z,100376.13
2023-02-11T23:17:19.801Z,100379.64
2023-02-11T23:19:47.475Z,100374.57
2023-02-11T23:22:15.124Z,100377.41
2023-02-11T23:24:42.886Z,100375.61
2023-02-11T23:27:10.550Z,100371.04
2023-02-11T23:29:38.210Z,100372.33
2023-02-11T23:32:05.900Z,100372.06
2023-02-11T23:34:33.638Z,100370.46
2023-02-11T23:37:01.614Z,100378.64
2023-02-11T23:39:29.369Z,100377.77
2023-02-11T23:41:59.181Z,100378.79
2023-02-11T23:44:26.847Z,100381.13
2023-02-11T23:46:54.611Z,100380.66
2023-02-11T23:49:22.375Z,100383.30
2023-02-11T23:51:50.141Z,100389.11
2023-02-11T23:54:17.802Z,100396.47
2023-02-11T23:56:46.380Z,100399.89
2023-02-11T23:59:14.061Z,100400.38
